Warning: Javascript must be enabled to use all the features on this page!


Page Loading - Please Wait...

Click to hideNews Bulletins

Peak Streamflow for the Nation

USGS 04256000 INDEPENDENCE RIVER AT DONNATTSBURG NY

Lewis County, New York
Hydrologic Unit Code 04150101
Latitude  43°44'48.5", Longitude  75°20'00.4" NAD83
Drainage area 88.7  square miles
Contributing drainage area 88.7  square miles
Gage datum 972.40 feet above NAVD88
Output formats
Table
Graph
Tab-separated file
peakfq (watstore) format
Reselect output format
Water
Year
Date Gage
Height
(feet)
Stream-
flow
(cfs)
1943 1943-04-25   1,380
1944 1944-04-11 7.30 1,970
1945 1945-03-22 7.20 1,890
1946 1945-10-02 8.80 3,410
1947 1947-04-12 8.70 3,290
1948 1948-03-23 7.92 2,500
1949 1949-03-29 7.60 2,210
1950 1950-04-20 6.86 1,780
1951 1951-03-31 7.87 2,720
1952 1952-04-06 7.18 2,060
1953 1952-12-12 7.54 2,390
1954 1954-02-22 6.82 1,750
1955 1955-04-15 6.72 1,670
1956 1956-04-30 6.94 1,880
1957 1957-05-21 6.152 1,300
1958 1957-12-21 6.74 1,720
1959 1959-04-18 6.082 1,250
1960 1960-04-04 6.73 1,710
1961 1961-04-24 5.92 1,130
1962 1962-04-08 6.39 1,460
1963 1963-04-04 8.61 3,350
1964 1964-04-15 7.10 2,010
1965 1965-04-23 6.252 1,360
1966 1966-04-22 6.24 1,360
1967 1967-04-03 7.10 2,010
1968 1968-04-02 6.41 1,480
1969 1969-05-20 8.72 3,450
1970 1970-04-25 6.80 1,770
1971 1971-05-03 6.50 1,540
1972 1972-05-03 7.81 2,630
1973 1973-03-18 6.96 1,900
1974 1974-04-05 7.23 2,110
1975 1975-09-26 7.72 2,550
1976 1976-03-28 7.29 2,140
1977 1977-03-14 8.45 3,170
1978 1977-10-02 6.38 1,460
1979 1979-03-25 7.49 2,300
1980 1980-04-10 6.87 1,810
1981 1981-02-23 6.622 1,760
1982 1982-04-18 9.73 5,530
1983 1983-04-16 6.01 1,190
1984 1983-12-14 8.61 3,830
1985 1984-12-30 13.34 9,420
1986 1986-03-31 7.52 2,030
1987 1987-04-01 7.73 2,210
1988 1988-03-27 6.91 1,590
1989 1988-11-06 7.79 2,280
1990 1990-03-18 8.41 2,830
1991 1990-12-31 7.56 2,100
1992 1992-04-12 8.75 3,170
1993 1993-04-11 9.56 4,040
1994 1994-04-17 8.46 3,200
1995 1995-01-16 7.07 1,950
1996 1995-10-22 8.62 3,360
1997 1996-11-09 8.10 2,840
1998 1998-01-08 9.53 4,340
1999 1999-01-25 7.00 1,840
2000 2000-05-11 8.14 2,880
2001 2001-04-13 7.65 2,420
2002 2002-04-14 7.14 1,970
2003 2003-03-30 7.61 2,390
2004 2004-05-25 7.91 2,660
2005 2005-04-03 7.94 2,690
2006 2006-06-28 7.47 2,260
2007 2006-11-17 6.90 1,780
2008 2008-04-12 7.48 2,270
2009 2008-11-16 7.20 2,030
2010 2010-01-26 7.092 1,930
2011 2010-10-01 8.51 3,250
2012 2012-03-17 5.96 1,090
2013 2013-01-31 7.54 2,320
2014 2014-04-15 8.51 3,250
2015 2015-06-10 7.48 2,270
2016 2016-03-11 7.341 1,3002
2017 2017-02-26 7.42 2,270
2018 2017-10-31 7.812 2,590
2019 2019-04-09 6.502 1,520
2020 2019-11-01 9.02 3,780
?
  Peak Gage-Height Qualification Codes.
?
  Peak Streamflow Qualification Codes.